Time;durP1;ratioP1;P1;durP2;ratioP2;P2;SDS_P1;SDS_P2;PMS_P1;PMS_P2;Temp;Humidity;BMP_temperature;BMP_pressure;BME280_temperature;BME280_humidity;BME280_pressure;Samples;Min_cycle;Max_cycle;Signal;HPM_P1;HPM_P2
2023/06/03 00:00:10;;;;;;;9.90;2.67;;;;;;;22.09;42.63;102023.34;5011773;28;20091;-68
2023/06/03 00:02:35;;;;;;;7.55;2.67;;;;;;;22.10;42.67;102019.72;5002661;28;20956;-67
2023/06/03 00:05:03;;;;;;;5.90;2.60;;;;;;;22.09;42.80;102011.88;5020328;28;20862;-69
2023/06/03 00:07:29;;;;;;;8.23;2.90;;;;;;;22.10;42.61;102024.22;5014623;28;20033;-69
2023/06/03 00:09:54;;;;;;;6.53;2.80;;;;;;;22.10;42.46;102017.06;5002137;28;20037;-67
2023/06/03 00:12:20;;;;;;;7.47;2.92;;;;;;;22.09;42.58;102018.03;5017683;28;20117;-66
2023/06/03 00:14:45;;;;;;;7.20;3.28;;;;;;;22.06;42.85;102015.66;5015911;28;20029;-68
2023/06/03 00:17:11;;;;;;;5.63;2.83;;;;;;;22.08;42.62;102016.38;5013559;28;20076;-67
2023/06/03 00:19:39;;;;;;;6.70;2.78;;;;;;;22.08;42.65;102021.66;5005391;28;20029;-69
2023/06/03 00:22:04;;;;;;;7.38;2.60;;;;;;;22.06;42.59;102018.31;5020598;28;20040;-67
2023/06/03 00:24:30;;;;;;;7.38;2.78;;;;;;;22.06;42.13;102018.31;5020327;28;20033;-67
2023/06/03 00:26:55;;;;;;;5.93;2.50;;;;;;;22.06;42.73;102020.97;5021081;28;20033;-66
2023/06/03 00:29:21;;;;;;;6.90;2.78;;;;;;;22.07;42.41;102024.44;5002815;28;20283;-67
2023/06/03 00:31:47;;;;;;;7.03;2.70;;;;;;;22.05;42.35;102023.72;5007229;28;20079;-66
2023/06/03 00:34:12;;;;;;;5.80;2.80;;;;;;;22.07;42.59;102024.44;5001435;28;20029;-66
2023/06/03 00:36:39;;;;;;;7.75;2.72;;;;;;;22.06;42.50;102026.28;5002468;28;20041;-66
2023/06/03 00:39:04;;;;;;;6.20;2.80;;;;;;;22.05;42.38;102021.09;5012023;28;20041;-65
2023/06/03 00:41:29;;;;;;;5.93;2.67;;;;;;;22.05;42.37;102021.09;5001591;28;20121;-65
2023/06/03 00:43:55;;;;;;;6.07;3.00;;;;;;;22.04;42.35;102016.72;5018408;28;20549;-68
2023/06/03 00:46:20;;;;;;;6.20;2.88;;;;;;;22.05;42.29;102023.72;5015130;28;20275;-69
2023/06/03 00:48:46;;;;;;;8.30;2.88;;;;;;;22.04;42.16;102028.19;5016131;28;20087;-66
2023/06/03 00:51:12;;;;;;;6.07;2.45;;;;;;;22.04;42.16;102028.19;5019435;28;20498;-68
2023/06/03 00:53:38;;;;;;;7.13;2.63;;;;;;;22.03;42.51;102020.34;5014133;28;20080;-67
2023/06/03 00:56:04;;;;;;;7.65;2.78;;;;;;;22.02;41.96;102023.97;5001346;28;20030;-66
2023/06/03 00:58:30;;;;;;;6.53;3.03;;;;;;;22.00;42.25;102016.13;5003050;28;20141;-67
2023/06/03 01:00:55;;;;;;;6.38;2.50;;;;;;;22.02;42.05;102019.50;5000428;28;20118;-68
2023/06/03 01:03:20;;;;;;;9.07;3.03;;;;;;;22.01;41.96;102020.47;5001858;28;20045;-66
2023/06/03 01:06:01;;;;;;;7.07;2.78;;;;;;;21.99;41.94;102013.59;5014127;28;20394;-68
2023/06/03 01:08:45;;;;;;;6.53;2.70;;;;;;;21.99;42.19;102019.75;5020946;28;20464;-69
2023/06/03 01:11:39;;;;;;;6.15;2.70;;;;;;;21.98;41.75;102018.03;5012971;28;20113;-67
2023/06/03 01:14:17;;;;;;;6.43;2.90;;;;;;;21.99;41.74;102013.59;4991480;28;20560;-67
2023/06/03 01:16:47;;;;;;;6.82;2.90;;;;;;;21.99;41.72;102017.09;5018331;28;20543;-66
2023/06/03 01:19:38;;;;;;;9.13;2.70;;;;;;;21.99;41.84;102022.41;5015298;28;20034;-67
2023/06/03 01:22:06;;;;;;;6.80;2.88;;;;;;;22.01;41.67;102020.47;5001777;28;20041;-69
2023/06/03 01:24:32;;;;;;;5.78;2.75;;;;;;;21.99;41.57;102011.78;5009333;28;20052;-67
2023/06/03 01:26:58;;;;;;;6.13;2.67;;;;;;;21.99;41.68;102016.25;5020675;28;20033;-69
2023/06/03 01:29:24;;;;;;;5.80;2.95;;;;;;;21.99;41.78;102022.41;5018991;28;20428;-69
2023/06/03 01:31:49;;;;;;;5.70;2.60;;;;;;;21.98;41.59;102020.69;5015743;28;20102;-69
2023/06/03 01:34:15;;;;;;;7.25;3.00;;;;;;;21.98;41.63;102019.88;5024322;28;20029;-69
2023/06/03 01:36:40;;;;;;;7.50;3.22;;;;;;;;;;5009040;28;20030;-67
2023/06/03 01:39:06;;;;;;;6.53;2.40;;;;;;;21.95;41.61;102018.28;5010851;28;20059;-67
2023/06/03 01:41:32;;;;;;;6.93;2.85;;;;;;;21.96;42.02;102017.34;5016915;28;20358;-67
2023/06/03 01:43:58;;;;;;;8.98;3.00;;;;;;;21.95;41.69;102014.81;5013960;28;21107;-67
2023/06/03 01:46:23;;;;;;;7.83;3.00;;;;;;;21.96;41.27;102014.69;5004751;28;20042;-66
2023/06/03 01:48:49;;;;;;;6.93;2.85;;;;;;;21.94;41.48;102013.97;5019885;28;20282;-69
2023/06/03 01:51:15;;;;;;;7.55;3.10;;;;;;;21.96;41.44;102016.50;5010890;28;20108;-67
2023/06/03 01:53:40;;;;;;;5.97;2.70;;;;;;;21.92;41.59;102016.75;5013540;28;20120;-67
2023/06/03 01:56:05;;;;;;;6.77;3.00;;;;;;;21.94;41.58;102016.63;5024437;28;20255;-67
2023/06/03 01:58:31;;;;;;;6.30;2.78;;;;;;;21.93;41.45;102015.75;5024014;28;20674;-66
2023/06/03 02:00:56;;;;;;;7.47;2.73;;;;;;;21.94;41.58;102011.31;5024089;28;20061;-67
2023/06/03 02:03:21;;;;;;;5.53;2.67;;;;;;;21.93;41.37;102012.25;5019248;28;20270;-66
2023/06/03 02:05:47;;;;;;;6.93;2.50;;;;;;;21.92;41.38;102010.56;5022280;28;20271;-69
2023/06/03 02:08:12;;;;;;;8.50;2.75;;;;;;;21.93;41.36;102010.44;5023671;28;20482;-65
2023/06/03 02:10:37;;;;;;;5.53;2.85;;;;;;;21.92;41.32;102010.56;5023002;28;21293;-66
2023/06/03 02:13:03;;;;;;;6.50;2.67;;;;;;;21.92;41.21;102016.75;5023579;28;20040;-68
2023/06/03 02:15:28;;;;;;;5.88;2.92;;;;;;;21.90;41.42;102013.38;5014583;28;20532;-69
2023/06/03 02:17:55;;;;;;;6.67;2.77;;;;;;;21.90;41.32;102010.72;5010257;28;20461;-65
2023/06/03 02:20:22;;;;;;;6.60;3.03;;;;;;;21.89;41.36;102014.31;5011729;28;20838;-66
2023/06/03 02:22:47;;;;;;;5.30;2.70;;;;;;;21.89;41.18;102010.84;5012236;28;20124;-66
2023/06/03 02:25:13;;;;;;;5.93;2.80;;;;;;;21.87;41.13;102005.66;5023290;28;20116;-67
2023/06/03 02:27:38;;;;;;;6.03;3.08;;;;;;;21.90;41.37;102012.50;5014829;28;20033;-66
2023/06/03 02:30:04;;;;;;;8.18;2.70;;;;;;;21.88;41.07;102009.97;5015967;28;20073;-67
2023/06/03 02:32:30;;;;;;;5.85;2.80;;;;;;;21.87;41.07;102010.09;5002851;28;20034;-67
2023/06/03 02:34:55;;;;;;;6.47;2.60;;;;;;;21.88;41.07;102009.13;5005014;28;20030;-67
2023/06/03 02:37:20;;;;;;;6.15;2.80;;;;;;;21.89;41.20;102013.50;5018582;28;20658;-66
2023/06/03 02:39:46;;;;;;;9.48;3.00;;;;;;;21.88;41.18;102011.78;5019216;28;20072;-69
2023/06/03 02:42:11;;;;;;;7.53;2.65;;;;;;;21.89;41.30;102010.84;5023614;28;20462;-69
2023/06/03 02:44:37;;;;;;;5.80;3.00;;;;;;;21.87;41.24;102013.63;5018310;28;20034;-69
2023/06/03 02:47:02;;;;;;;8.52;3.03;;;;;;;21.87;41.17;102021.56;5008503;28;20034;-67
2023/06/03 02:49:28;;;;;;;6.68;2.60;;;;;;;21.87;40.79;102024.22;5021525;28;20056;-66
2023/06/03 02:51:54;;;;;;;6.87;2.80;;;;;;;21.85;41.16;102009.38;5015578;28;20053;-66
2023/06/03 02:54:20;;;;;;;8.32;2.60;;;;;;;21.84;40.94;102021.81;5002973;28;20263;-67
2023/06/03 02:56:45;;;;;;;5.97;2.80;;;;;;;21.85;41.08;102026.13;5008823;28;20038;-67
2023/06/03 02:59:11;;;;;;;6.38;2.70;;;;;;;21.84;40.91;102018.28;5003452;28;20040;-67
2023/06/03 03:01:37;;;;;;;6.07;2.40;;;;;;;21.83;40.90;102008.66;5021811;28;20120;-66
2023/06/03 03:04:02;;;;;;;6.32;2.55;;;;;;;21.83;40.88;102028.06;5009309;28;20466;-66
2023/06/03 03:06:29;;;;;;;6.65;2.47;;;;;;;21.85;40.96;102020.00;5003394;28;20116;-66
2023/06/03 03:08:54;;;;;;;5.15;2.55;;;;;;;21.82;40.97;102006.97;5003034;28;20029;-65
2023/06/03 03:11:20;;;;;;;6.25;2.78;;;;;;;21.83;40.98;102020.13;5020355;28;20048;-66
2023/06/03 03:13:46;;;;;;;6.00;2.80;;;;;;;21.81;40.82;102013.22;5008333;28;20486;-69
2023/06/03 03:16:12;;;;;;;5.85;2.58;;;;;;;21.83;40.97;102019.28;5006124;28;20033;-66
2023/06/03 03:18:40;;;;;;;6.03;2.63;;;;;;;21.81;40.88;102023.84;5011338;28;20618;-66
2023/06/03 03:21:06;;;;;;;8.07;2.72;;;;;;;21.80;40.88;102023.00;5014258;28;20084;-66
2023/06/03 03:23:32;;;;;;;7.07;3.00;;;;;;;21.79;41.02;102023.97;5005785;28;20429;-66
2023/06/03 03:25:58;;;;;;;5.40;2.58;;;;;;;21.81;40.87;102022.06;5016157;28;20037;-69
2023/06/03 03:28:24;;;;;;;5.20;2.22;;;;;;;21.77;40.92;102017.94;5022346;28;20030;-66
2023/06/03 03:30:49;;;;;;;4.60;2.45;;;;;;;21.80;40.96;102027.47;5011371;28;20060;-65
2023/06/03 03:33:18;;;;;;;5.10;2.90;;;;;;;21.80;41.04;102024.81;5007219;28;20068;-66
2023/06/03 03:35:43;;;;;;;5.03;2.40;;;;;;;21.79;40.82;102025.78;5002471;28;20083;-66
2023/06/03 03:38:09;;;;;;;5.97;2.67;;;;;;;21.79;41.00;102025.78;5002515;28;20148;-67
2023/06/03 03:40:38;;;;;;;5.60;2.78;;;;;;;21.77;40.85;102025.91;5015364;28;20057;-67
2023/06/03 03:43:04;;;;;;;6.82;2.95;;;;;;;21.78;40.60;102032.03;5004024;28;20038;-69
2023/06/03 03:45:38;;;;;;;7.68;2.90;;;;;;;21.76;40.99;102026.84;5002054;28;20397;-66
2023/06/03 03:48:14;;;;;;;6.07;2.30;;;;;;;21.77;40.54;102033.03;5002379;28;20479;-66
2023/06/03 03:50:45;;;;;;;5.30;2.53;;;;;;;21.77;40.55;102038.34;5016270;28;20069;-68
2023/06/03 03:53:13;;;;;;;6.97;2.67;;;;;;;21.77;40.58;102035.69;5009252;28;20065;-67
2023/06/03 03:55:41;;;;;;;5.03;2.30;;;;;;;21.76;40.94;102032.16;5004735;28;20773;-66
2023/06/03 03:58:26;;;;;;;4.10;2.10;;;;;;;21.76;40.53;102039.28;5011698;28;20116;-68
2023/06/03 04:00:54;;;;;;;5.40;2.60;;;;;;;21.75;40.66;102035.78;5002496;28;20033;-67
2023/06/03 04:03:23;;;;;;;6.18;2.42;;;;;;;21.77;40.52;102040.97;5007724;28;20064;-65
2023/06/03 04:05:49;;;;;;;5.28;2.47;;;;;;;21.74;40.36;102026.13;5018694;28;20087;-66
2023/06/03 04:08:25;;;;;;;5.20;2.65;;;;;;;21.74;40.83;102028.78;5013437;28;20042;-66
2023/06/03 04:10:51;;;;;;;6.00;2.25;;;;;;;21.74;40.67;102032.28;5003800;28;20048;-69
2023/06/03 04:13:18;;;;;;;4.72;2.55;;;;;;;21.74;40.65;102034.94;5012433;28;20034;-66
2023/06/03 04:15:43;;;;;;;4.40;2.45;;;;;;;21.69;40.55;102026.50;5012216;28;20033;-67
2023/06/03 04:18:12;;;;;;;5.28;2.50;;;;;;;21.75;40.52;102035.78;5011822;28;20502;-66
2023/06/03 04:20:44;;;;;;;7.75;2.75;;;;;;;21.71;40.77;102034.34;5001725;28;20443;-66
2023/06/03 04:23:19;;;;;;;3.92;2.22;;;;;;;21.71;40.83;102043.16;5012028;28;20367;-66
2023/06/03 04:25:45;;;;;;;5.65;2.33;;;;;;;21.72;40.71;102044.00;5014856;28;20040;-67
2023/06/03 04:28:10;;;;;;;5.20;2.53;;;;;;;21.74;40.73;102042.06;5006637;28;20034;-68
2023/06/03 04:30:36;;;;;;;4.28;2.33;;;;;;;21.72;40.46;102044.81;5007592;28;20037;-68
2023/06/03 04:33:02;;;;;;;6.03;2.70;;;;;;;21.72;40.70;102047.47;5011748;28;20485;-66
2023/06/03 04:35:27;;;;;;;4.85;2.25;;;;;;;21.67;40.63;102043.50;5005519;28;20391;-65
2023/06/03 04:37:52;;;;;;;5.47;2.50;;;;;;;21.71;40.94;102044.94;5010463;28;20049;-67
2023/06/03 04:40:18;;;;;;;4.38;2.30;;;;;;;21.70;40.50;102041.47;5021018;28;20068;-66
2023/06/03 04:42:43;;;;;;;4.97;2.47;;;;;;;21.71;40.50;102043.16;5011524;28;20076;-69
2023/06/03 04:45:09;;;;;;;6.38;2.78;;;;;;;21.68;40.33;102046.06;5009040;28;21083;-67
2023/06/03 04:47:35;;;;;;;5.47;2.45;;;;;;;21.68;40.61;102046.06;5007735;28;20048;-69
2023/06/03 04:50:04;;;;;;;5.55;2.60;;;;;;;21.69;40.54;102047.72;5009894;28;20462;-67
2023/06/03 04:52:31;;;;;;;5.30;2.40;;;;;;;21.71;40.69;102050.25;5019697;28;20122;-67
2023/06/03 04:54:56;;;;;;;4.57;2.17;;;;;;;21.68;40.37;102054.00;5009447;28;20493;-66
2023/06/03 04:57:22;;;;;;;7.10;2.47;;;;;;;21.69;40.54;102055.69;5013465;28;20034;-65
2023/06/03 04:59:47;;;;;;;4.53;2.35;;;;;;;21.68;40.64;102040.75;5017659;28;20033;-67
2023/06/03 05:02:16;;;;;;;5.13;2.30;;;;;;;21.68;40.55;102047.84;5015506;28;20029;-66
2023/06/03 05:04:42;;;;;;;5.35;2.53;;;;;;;21.69;40.67;102053.03;5010912;28;20034;-67
2023/06/03 05:07:10;;;;;;;5.65;2.55;;;;;;;21.69;40.52;102046.88;5012436;28;20044;-66
2023/06/03 05:09:35;;;;;;;4.43;2.20;;;;;;;21.66;40.57;102044.47;5014105;28;20030;-68
2023/06/03 05:12:01;;;;;;;5.70;2.40;;;;;;;21.66;40.45;102052.44;5011479;28;20505;-66
2023/06/03 05:14:26;;;;;;;4.47;2.20;;;;;;;21.68;40.64;102054.00;5005467;28;20123;-66
2023/06/03 05:16:51;;;;;;;5.63;2.22;;;;;;;21.67;40.30;102054.97;5022054;28;20037;-69
2023/06/03 05:19:17;;;;;;;7.18;2.47;;;;;;;21.67;40.27;102054.13;5013742;28;20033;-67
2023/06/03 05:21:42;;;;;;;4.82;2.25;;;;;;;21.67;40.63;102054.97;5010010;28;20030;-69
2023/06/03 05:24:08;;;;;;;6.13;2.28;;;;;;;21.66;40.53;102055.06;5014582;28;20592;-67
2023/06/03 05:26:33;;;;;;;5.22;2.17;;;;;;;21.67;40.45;102049.66;5010637;28;20130;-68
2023/06/03 05:28:58;;;;;;;5.10;2.05;;;;;;;21.67;40.14;102057.63;5012559;28;20572;-65
2023/06/03 05:31:23;;;;;;;4.10;1.80;;;;;;;21.63;40.42;102050.84;5019397;28;20068;-66
2023/06/03 05:33:49;;;;;;;6.25;2.40;;;;;;;21.65;40.61;102048.06;5014611;28;20729;-66
2023/06/03 05:36:14;;;;;;;4.35;2.17;;;;;;;21.66;40.27;102058.56;5011860;28;20120;-67
2023/06/03 05:38:39;;;;;;;4.22;2.08;;;;;;;21.65;40.37;102050.72;5015128;28;20052;-66
2023/06/03 05:41:06;;;;;;;6.07;2.40;;;;;;;21.66;40.51;102058.56;5015225;28;20358;-66
2023/06/03 05:43:31;;;;;;;4.95;2.17;;;;;;;21.66;40.47;102050.59;5018713;28;20298;-66
2023/06/03 05:45:57;;;;;;;5.75;2.10;;;;;;;21.67;40.38;102059.44;5013217;28;20065;-67
2023/06/03 05:48:22;;;;;;;4.28;2.30;;;;;;;21.67;40.25;102054.13;5017967;28;20195;-67
2023/06/03 05:50:49;;;;;;;4.38;1.95;;;;;;;21.66;40.50;102045.31;5015911;28;20040;-66
2023/06/03 05:53:24;;;;;;;5.95;2.28;;;;;;;21.66;40.45;102047.97;5010000;28;20029;-64
2023/06/03 05:55:51;;;;;;;5.05;2.20;;;;;;;21.67;40.43;102054.97;5013138;28;20390;-66
2023/06/03 05:58:17;;;;;;;3.95;2.03;;;;;;;21.62;40.45;102050.97;5016767;28;20084;-67
2023/06/03 06:00:43;;;;;;;9.43;2.10;;;;;;;21.62;40.30;102053.63;5014537;28;20616;-70
2023/06/03 06:03:08;;;;;;;4.10;2.00;;;;;;;21.63;40.60;102052.66;5008233;28;20105;-69
2023/06/03 06:05:34;;;;;;;4.10;2.15;;;;;;;21.68;40.55;102064.63;5015200;28;20096;-66
2023/06/03 06:07:59;;;;;;;4.25;2.25;;;;;;;21.69;40.83;102063.63;5009783;28;20159;-69
2023/06/03 06:10:24;;;;;;;6.68;2.45;;;;;;;21.72;40.95;102059.91;5020666;28;20386;-68
2023/06/03 06:12:50;;;;;;;5.95;2.03;;;;;;;21.69;40.98;102053.03;5014718;28;20477;-68
2023/06/03 06:15:15;;;;;;;5.63;2.20;;;;;;;21.69;41.11;102055.69;5010376;28;20116;-65
2023/06/03 06:17:42;;;;;;;6.60;1.98;;;;;;;21.66;41.05;102053.25;5009300;28;20053;-70
2023/06/03 06:20:10;;;;;;;5.18;2.10;;;;;;;21.67;41.25;102059.44;5018350;28;20474;-68
2023/06/03 06:22:35;;;;;;;6.95;2.15;;;;;;;21.69;41.18;102060.97;5011956;28;20040;-68
2023/06/03 06:25:03;;;;;;;5.78;1.83;;;;;;;21.68;41.51;102071.72;5015085;28;20033;-67
2023/06/03 06:27:29;;;;;;;4.25;2.00;;;;;;;21.70;41.05;102064.50;5015221;28;20026;-68
2023/06/03 06:29:55;;;;;;;5.93;2.03;;;;;;;21.69;41.27;102068.94;5013604;28;20049;-67
2023/06/03 06:32:26;;;;;;;5.50;1.83;;;;;;;21.66;41.24;102063.88;5016374;28;20030;-67
2023/06/03 06:34:52;;;;;;;6.35;2.42;;;;;;;21.66;41.52;102071.00;5015199;28;20029;-66
2023/06/03 06:37:18;;;;;;;4.88;2.13;;;;;;;21.62;41.25;102058.91;5008498;28;20030;-67
2023/06/03 06:39:54;;;;;;;5.50;1.90;;;;;;;21.67;41.21;102064.75;5006188;28;20109;-67
2023/06/03 06:42:39;;;;;;;4.68;1.90;;;;;;;21.71;40.83;102067.03;5020463;28;20050;-68
2023/06/03 06:45:13;;;;;;;4.03;2.05;;;;;;;21.71;41.01;102063.53;5018134;28;20056;-70
2023/06/03 06:47:39;;;;;;;4.75;2.03;;;;;;;21.69;40.92;102060.97;5013527;28;20037;-66
2023/06/03 06:50:08;;;;;;;6.40;2.03;;;;;;;21.68;41.25;102063.75;5010397;28;20033;-68
2023/06/03 06:52:35;;;;;;;4.82;1.92;;;;;;;21.67;41.28;102062.09;5014765;28;20051;-65
2023/06/03 06:55:01;;;;;;;4.10;1.83;;;;;;;21.64;41.19;102068.47;5014884;28;20037;-66
2023/06/03 06:57:28;;;;;;;5.32;2.20;;;;;;;21.68;41.27;102074.38;5013234;28;20534;-67
2023/06/03 06:59:54;;;;;;;4.80;1.73;;;;;;;21.70;41.10;102073.28;5017939;28;20049;-69
2023/06/03 07:02:20;;;;;;;4.93;1.80;;;;;;;21.68;41.25;102077.03;5011361;28;20033;-65
2023/06/03 07:04:47;;;;;;;4.93;1.90;;;;;;;21.69;41.38;102068.94;5007786;28;20639;-68
2023/06/03 07:07:13;;;;;;;5.78;2.03;;;;;;;21.68;41.68;102071.72;5003255;28;20534;-66
2023/06/03 07:09:40;;;;;;;3.97;1.70;;;;;;;21.69;41.76;102073.41;5006506;28;20132;-66
2023/06/03 07:12:05;;;;;;;5.05;1.90;;;;;;;21.66;41.95;102069.19;5019807;28;20291;-69
2023/06/03 07:14:31;;;;;;;6.00;1.90;;;;;;;21.69;41.81;102071.59;5010408;28;20110;-67
2023/06/03 07:16:56;;;;;;;6.40;2.13;;;;;;;21.68;41.80;102064.63;5008266;28;20049;-68
2023/06/03 07:19:22;;;;;;;5.22;1.70;;;;;;;21.65;41.93;102061.34;5015394;28;20040;-67
2023/06/03 07:21:47;;;;;;;6.63;1.63;;;;;;;21.67;42.30;102060.25;5020648;28;20080;-71
2023/06/03 07:24:15;;;;;;;4.57;1.83;;;;;;;21.68;42.11;102069.06;5010979;28;20115;-66
2023/06/03 07:26:40;;;;;;;5.63;1.75;;;;;;;21.69;41.91;102065.47;5014502;28;20037;-65
2023/06/03 07:29:06;;;;;;;8.55;2.00;;;;;;;21.73;41.45;102062.44;5017097;28;20382;-68
2023/06/03 07:31:35;;;;;;;4.07;1.65;;;;;;;21.71;41.88;102060.88;5012690;28;20057;-69
2023/06/03 07:34:01;;;;;;;7.75;1.60;;;;;;;21.74;41.82;102068.59;5001968;28;20029;-70
2023/06/03 07:36:26;;;;;;;6.10;2.10;;;;;;;21.72;41.98;102066.06;5005700;28;20340;-70
2023/06/03 07:39:03;;;;;;;8.75;1.70;;;;;;;21.73;41.86;102061.63;5006490;28;20402;-69
2023/06/03 07:41:37;;;;;;;4.03;1.63;;;;;;;21.83;41.97;102062.56;5005011;28;20069;-69
2023/06/03 07:44:11;;;;;;;4.68;1.70;;;;;;;21.82;41.97;102065.34;5011115;28;20041;-68
2023/06/03 07:46:54;;;;;;;4.07;1.50;;;;;;;21.83;41.94;102061.75;5002222;28;20050;-68
2023/06/03 07:49:21;;;;;;;5.50;1.52;;;;;;;21.81;42.42;102066.28;5012562;28;20621;-67
2023/06/03 07:51:49;;;;;;;5.10;1.80;;;;;;;21.84;41.88;102066.94;5026882;28;20418;-69
2023/06/03 07:54:15;;;;;;;4.50;1.75;;;;;;;21.88;41.76;102071.00;5018041;28;20440;-68
2023/06/03 07:56:41;;;;;;;3.50;1.55;;;;;;;21.91;41.89;102069.94;5011120;28;20046;-66
2023/06/03 07:59:09;;;;;;;4.80;1.75;;;;;;;21.90;41.86;102065.59;5014872;28;20048;-66
2023/06/03 08:01:35;;;;;;;4.65;1.85;;;;;;;21.89;41.97;102069.22;5006220;28;20164;-66
2023/06/03 08:04:05;;;;;;;4.07;1.50;;;;;;;21.89;42.18;102070.06;5009260;28;20037;-68
2023/06/03 08:06:32;;;;;;;4.28;1.90;;;;;;;21.87;42.30;102068.47;5001642;28;20477;-67
2023/06/03 08:08:59;;;;;;;7.90;2.15;;;;;;;21.82;42.35;102066.19;5005800;28;20093;-67
2023/06/03 08:11:25;;;;;;;5.35;1.55;;;;;;;21.83;41.87;102073.19;5001015;28;20058;-66
2023/06/03 08:13:54;;;;;;;5.43;1.85;;;;;;;21.92;41.38;102063.66;5011458;28;20061;-65
2023/06/03 08:16:20;;;;;;;4.43;1.70;;;;;;;21.99;41.34;102066.69;5004402;28;20101;-70
2023/06/03 08:18:56;;;;;;;3.53;1.38;;;;;;;21.99;41.22;102064.88;5002949;28;20066;-69
2023/06/03 08:21:30;;;;;;;6.75;1.67;;;;;;;22.02;41.00;102063.78;5008113;28;20038;-64
2023/06/03 08:23:56;;;;;;;3.35;1.40;;;;;;;22.03;40.98;102061.00;5014626;28;20033;-66
2023/06/03 08:26:21;;;;;;;4.68;1.50;;;;;;;22.06;40.83;102071.41;5015375;28;20383;-64
2023/06/03 08:28:47;;;;;;;7.38;1.92;;;;;;;22.07;40.55;102061.63;5007230;28;20926;-70
2023/06/03 08:31:13;;;;;;;4.80;1.40;;;;;;;22.08;40.76;102064.16;5000946;28;20025;-67
2023/06/03 08:33:38;;;;;;;5.90;1.60;;;;;;;22.10;40.69;102062.22;5016801;28;20485;-64
2023/06/03 08:36:04;;;;;;;3.60;1.65;;;;;;;22.12;40.89;102072.69;5019033;28;20041;-67
2023/06/03 08:38:29;;;;;;;5.25;1.58;;;;;;;22.11;40.83;102052.41;5002117;28;20091;-65
2023/06/03 08:40:55;;;;;;;4.63;1.30;;;;;;;22.15;40.65;102059.19;5020251;28;20080;-66
2023/06/03 08:43:22;;;;;;;4.70;1.50;;;;;;;22.12;40.50;102050.63;5016717;28;20042;-67
2023/06/03 08:45:50;;;;;;;4.00;1.40;;;;;;;22.15;40.71;102051.22;5000996;28;20061;-68
2023/06/03 08:48:48;;;;;;;4.28;1.70;;;;;;;22.14;40.75;102054.00;5010462;28;20115;-66
2023/06/03 08:51:15;;;;;;;3.97;1.48;;;;;;;22.17;40.83;102051.94;5003356;28;20030;-66
2023/06/03 08:53:45;;;;;;;3.78;1.38;;;;;;;22.19;40.70;102054.47;5019910;28;20065;-66
2023/06/03 08:56:12;;;;;;;3.40;1.42;;;;;;;22.20;40.66;102050.84;5013472;28;20120;-66
2023/06/03 08:58:45;;;;;;;4.72;1.60;;;;;;;22.21;40.46;102057.88;5010944;28;20536;-67
2023/06/03 09:01:11;;;;;;;2.78;1.20;;;;;;;22.25;40.91;102057.47;5001334;28;20034;-66
2023/06/03 09:03:38;;;;;;;3.97;1.42;;;;;;;22.27;40.47;102060.00;5011763;28;20964;-68
2023/06/03 09:06:05;;;;;;;4.13;1.40;;;;;;;22.25;40.38;102043.38;5015796;28;20416;-67
2023/06/03 09:08:32;;;;;;;4.57;1.55;;;;;;;22.25;40.46;102054.81;5019762;28;20038;-68
2023/06/03 09:10:58;;;;;;;3.85;1.45;;;;;;;22.25;40.54;102052.16;5006319;28;20034;-69
2023/06/03 09:13:28;;;;;;;4.78;1.70;;;;;;;22.26;40.66;102048.56;5012522;28;20042;-67
2023/06/03 09:15:54;;;;;;;2.92;1.25;;;;;;;22.28;40.54;102051.91;5001016;28;20040;-69
2023/06/03 09:18:19;;;;;;;2.88;1.40;;;;;;;22.27;40.21;102052.91;5013083;28;20053;-69
2023/06/03 09:20:45;;;;;;;2.25;1.17;;;;;;;22.27;40.33;102050.25;5002788;28;20048;-69
2023/06/03 09:23:12;;;;;;;4.38;1.30;;;;;;;22.28;40.34;102057.22;5003152;28;20041;-69
2023/06/03 09:25:38;;;;;;;3.60;1.48;;;;;;;22.28;40.25;102065.19;5016119;28;20065;-69
2023/06/03 09:28:04;;;;;;;5.15;1.50;;;;;;;22.26;40.43;102053.03;5012962;28;20168;-66
2023/06/03 09:30:33;;;;;;;3.63;1.40;;;;;;;22.27;39.41;102057.34;5007626;28;20045;-68
2023/06/03 09:32:58;;;;;;;7.22;1.38;;;;;;;22.31;39.35;102056.19;5011897;28;20041;-67
2023/06/03 09:35:24;;;;;;;3.70;1.35;;;;;;;22.28;39.29;102049.25;5020030;28;20033;-66
2023/06/03 09:37:59;;;;;;;7.82;1.83;;;;;;;22.31;40.10;102058.84;5015898;28;20045;-68
2023/06/03 09:40:27;;;;;;;3.25;1.27;;;;;;;22.33;39.70;102059.56;5007381;28;20080;-68
2023/06/03 09:42:53;;;;;;;4.65;1.42;;;;;;;22.35;39.67;102044.34;5011971;28;20478;-67
2023/06/03 09:45:25;;;;;;;3.30;1.20;;;;;;;22.36;39.60;102048.69;5018306;28;20044;-67
2023/06/03 09:47:52;;;;;;;5.05;1.67;;;;;;;22.39;39.59;102055.56;5002601;28;20042;-69
2023/06/03 09:50:17;;;;;;;3.30;1.23;;;;;;;22.38;39.79;102044.13;5010937;28;20029;-69
2023/06/03 09:52:43;;;;;;;2.88;1.05;;;;;;;22.41;39.92;102051.84;5013916;28;20088;-67
2023/06/03 09:55:10;;;;;;;5.90;1.23;;;;;;;22.42;39.79;102057.97;5015873;28;20041;-65
2023/06/03 09:57:39;;;;;;;6.18;1.20;;;;;;;22.45;39.79;102052.41;5012014;28;20036;-65
2023/06/03 10:00:11;;;;;;;4.13;1.27;;;;;;;22.47;40.05;102055.78;5001999;28;20037;-67
2023/06/03 10:02:43;;;;;;;2.83;1.10;;;;;;;22.39;39.48;102047.59;5004006;28;20037;-65
2023/06/03 10:05:24;;;;;;;4.22;1.20;;;;;;;22.37;39.48;102050.38;5019401;28;20584;-66
2023/06/03 10:07:50;;;;;;;5.60;1.27;;;;;;;22.34;39.40;102050.63;5017520;28;20026;-68
2023/06/03 10:10:15;;;;;;;5.25;1.60;;;;;;;22.37;39.37;102062.81;5004145;28;20041;-66
2023/06/03 10:12:41;;;;;;;2.35;1.00;;;;;;;22.43;39.36;102062.31;5009689;28;20048;-67
2023/06/03 10:15:07;;;;;;;2.85;0.98;;;;;;;22.41;39.48;102053.63;5017028;28;20040;-68
2023/06/03 10:17:32;;;;;;;4.10;1.20;;;;;;;22.37;39.26;102050.38;5011529;28;20538;-68
2023/06/03 10:19:57;;;;;;;4.78;1.00;;;;;;;22.35;39.27;102054.97;5004824;28;20052;-66
2023/06/03 10:22:25;;;;;;;4.43;1.75;;;;;;;22.35;39.32;102056.78;5004691;28;20033;-67
2023/06/03 10:24:54;;;;;;;2.40;1.10;;;;;;;22.28;39.55;102067.84;5003316;28;20048;-68
2023/06/03 10:27:20;;;;;;;8.07;1.48;;;;;;;22.31;39.62;102056.19;5021053;28;21031;-68
2023/06/03 10:29:50;;;;;;;4.57;1.30;;;;;;;22.28;39.28;102054.56;5008727;28;20050;-67
2023/06/03 10:32:16;;;;;;;3.10;1.30;;;;;;;22.23;39.32;102043.47;5023629;28;20036;-68
2023/06/03 10:34:43;;;;;;;4.22;1.20;;;;;;;22.19;39.09;102047.38;5022998;28;20026;-67
2023/06/03 10:37:12;;;;;;;4.68;1.23;;;;;;;22.18;39.05;102045.66;5023348;28;20033;-68
2023/06/03 10:39:38;;;;;;;2.90;1.10;;;;;;;22.13;39.21;102042.53;5022965;28;20076;-66
2023/06/03 10:42:05;;;;;;;3.63;1.13;;;;;;;22.15;38.98;102056.53;5011274;28;20099;-68
2023/06/03 10:44:31;;;;;;;2.47;1.02;;;;;;;22.13;38.72;102057.59;5019910;28;20498;-68
2023/06/03 10:47:05;;;;;;;2.63;1.00;;;;;;;22.08;38.65;102044.72;5015891;28;20095;-69
2023/06/03 10:49:39;;;;;;;3.63;1.25;;;;;;;22.06;38.36;102041.34;5009973;28;20034;-67
2023/06/03 10:52:37;;;;;;;3.28;1.30;;;;;;;22.05;37.85;102040.50;5023220;28;20044;-67
2023/06/03 10:55:21;;;;;;;2.75;1.00;;;;;;;22.04;37.62;102043.28;5022783;28;20469;-67
2023/06/03 10:57:51;;;;;;;2.10;0.95;;;;;;;22.05;38.18;102043.16;5003440;28;20038;-68
2023/06/03 11:00:55;;;;;;;3.33;1.30;;;;;;;22.06;38.60;102051.94;5016431;28;20048;-67
2023/06/03 11:03:27;;;;;;;3.85;1.00;;;;;;;22.04;37.85;102045.94;5023134;28;20037;-67
2023/06/03 11:05:53;;;;;;;4.13;1.20;;;;;;;22.03;37.54;102038.91;5021269;28;20436;-66
2023/06/03 11:08:57;;;;;;;4.15;1.15;;;;;;;22.00;37.75;102049.78;5022761;28;20107;-64
2023/06/03 11:11:41;;;;;;;2.50;0.90;;;;;;;21.96;37.80;102043.88;5010230;28;20072;-67
2023/06/03 11:14:29;;;;;;;2.70;1.10;;;;;;;21.96;37.74;102043.03;5019880;28;20044;-67
2023/06/03 11:16:57;;;;;;;2.58;1.20;;;;;;;21.95;37.49;102041.34;5018764;28;20046;-67
2023/06/03 11:19:35;;;;;;;2.47;1.00;;;;;;;21.92;37.39;102039.75;5010599;28;20498;-66
2023/06/03 11:22:07;;;;;;;2.30;1.00;;;;;;;21.92;37.12;102039.75;5002915;28;20069;-69
2023/06/03 11:24:38;;;;;;;3.42;1.05;;;;;;;21.93;37.33;102038.81;5002471;28;20034;-66
2023/06/03 11:27:10;;;;;;;3.10;1.10;;;;;;;21.93;37.97;102055.56;5006946;28;20132;-67
2023/06/03 11:29:45;;;;;;;2.47;0.95;;;;;;;21.94;37.95;102040.50;5022120;28;20478;-66